Latest Weather Observations for Point Fawcett

IDD60801

Issued at 6:01 pm CST Wednesday 2 September 2015 (issued every 30 minutes, with the page automatically refreshed every 10 minutes)

About weather observations | Map of weather stations | Latest weather observations for NT | Other Formats
Station Details ID: 200731 Name: POINT FAWCETT Lat: -11.76 Lon: 130.03 Height: 6.5 m
Data from the previous 72 hours. | See also: Recent months at Point Fawcett
Date/Time
CST
Temp
°C
App
Temp
°C
Dew
Point
Rel
Hum
%
Delta-T
°C
Wind Press
QNH
hPa
Press
MSL
hPa
Rain
since 9 am
mm
Dir
 
Spd
km/h
Gust
km/h
Spd
kts
Gust
kts
02/06:00pm 28.5 30.9 21.5 66 4.7 WSW 11 13 6 7 1012.5 1012.4 0.0
02/05:30pm 28.9 31.4 21.7 65 4.8 WSW 11 15 6 8 1012.4 - 0.0
02/05:00pm 29.6 32.0 21.5 61 5.4 WSW 11 15 6 8 1012.3 - 0.0
02/04:30pm 29.6 30.7 21.3 61 5.6 SW 17 24 9 13 1012.2 - 0.0
02/04:00pm 29.9 31.4 21.3 60 5.8 SW 15 22 8 12 1012.2 - 0.0
02/03:30pm 29.9 31.3 21.8 62 5.5 SW 17 24 9 13 1012.3 - 0.0
02/03:00pm 30.2 31.9 21.6 60 5.8 SW 15 20 8 11 1012.7 1012.6 0.0
02/02:30pm 30.1 32.1 22.3 63 5.3 SW 15 22 8 12 1013.1 - 0.0
02/02:00pm 30.0 31.8 21.9 62 5.5 WSW 15 24 8 13 1013.7 - 0.0
02/01:30pm 30.1 31.8 21.7 60 5.7 SW 15 22 8 12 1014.2 - 0.0
02/01:00pm 31.0 33.2 22.6 61 5.7 WSW 15 19 8 10 1014.8 - 0.0
02/12:30pm 30.0 31.8 21.9 62 5.5 WSW 15 22 8 12 1015.2 - 0.0
02/12:00pm 30.4 32.4 21.5 59 6.0 SSW 13 20 7 11 1015.7 1015.6 0.0
02/11:30am 29.2 31.4 21.9 64 4.9 SSW 13 20 7 11 1016.2 - 0.0
02/11:00am 29.6 31.8 21.8 63 5.3 SW 13 20 7 11 1016.6 - 0.0
02/10:30am 28.1 30.3 21.1 65 4.7 WSW 11 17 6 9 1016.7 - 0.0
02/10:00am 29.0 31.8 21.5 64 5.0 WSW 9 13 5 7 1016.6 - 0.0
02/09:30am 29.1 32.0 21.8 64 4.9 SW 9 13 5 7 1016.4 - 0.0
02/09:00am 28.2 31.0 21.5 67 4.5 SW 9 13 5 7 1016.3 1016.2 0.0
02/08:30am 27.0 30.0 22.0 74 3.4 SW 9 15 5 8 1016.0 - 0.0
02/08:00am 24.1 28.2 22.9 93 0.8 S 6 9 3 5 1015.7 - 0.0
02/07:30am 20.9 23.3 20.1 95 0.5 S 7 9 4 5 1015.3 - 0.0
02/07:00am 20.1 22.2 18.9 93 0.8 S 6 7 3 4 1014.9 - 0.0
02/06:30am 20.3 22.3 19.1 93 0.8 S 7 9 4 5 1014.4 - 0.0
02/06:00am 20.9 23.1 19.7 93 0.8 SSW 7 9 4 5 1014.0 1013.9 0.0
02/05:30am 20.9 23.3 19.6 92 0.8 S 6 9 3 5 1013.7 - 0.0
02/05:00am 21.1 23.5 19.7 92 0.9 SSW 6 9 3 5 1013.6 - 0.0
02/04:30am 21.4 23.8 19.7 90 1.1 SW 6 9 3 5 1013.5 - 0.0
02/04:00am 21.9 24.3 19.6 87 1.5 SSW 6 7 3 4 1013.5 - 0.0
02/03:30am 23.5 26.0 21.0 86 1.6 W 9 13 5 7 1013.6 - 0.0
02/03:00am 23.7 26.2 20.2 81 2.3 WSW 7 11 4 6 1013.6 1013.5 0.0
02/02:30am 25.1 27.8 21.4 80 2.4 WSW 9 13 5 7 1013.6 - 0.0
02/02:00am 25.6 28.2 21.9 80 2.5 WSW 11 15 6 8 1013.6 - 0.0
02/01:30am 25.8 28.5 22.1 80 2.5 WSW 11 17 6 9 1013.9 - 0.0
02/01:00am 25.9 28.8 22.4 81 2.4 WSW 11 17 6 9 1014.1 - 0.0
02/12:30am 26.0 28.8 22.3 80 2.5 WSW 11 17 6 9 1014.2 - 0.0
02/12:00am 26.1 29.0 22.4 80 2.5 WSW 11 17 6 9 1014.3 1014.2 0.0
 
Date/Time
CST
Temp
°C
App
Temp
°C
Dew
Point
Rel
Hum
%
Delta-T
°C
Wind Press
QNH
hPa
Press
MSL
hPa
Rain
since 9 am
mm
Dir
 
Spd
km/h
Gust
km/h
Spd
kts
Gust
kts
01/11:30pm 26.2 28.7 22.5 80 2.5 WSW 13 20 7 11 1014.4 - 0.0
01/11:00pm 26.2 28.6 22.3 79 2.6 WSW 13 19 7 10 1014.3 - 0.0
01/10:30pm 26.3 28.4 22.4 79 2.6 WSW 15 20 8 11 1014.3 - 0.0
01/10:00pm 26.4 28.4 22.3 78 2.8 SW 15 22 8 12 1014.1 - 0.0
01/09:30pm 26.4 28.5 22.5 79 2.6 SW 15 20 8 11 1014.0 - 0.0
01/09:00pm 26.4 28.9 22.5 79 2.6 SW 13 19 7 10 1013.8 - 0.0
01/08:30pm 26.5 29.1 22.6 79 2.6 SW 13 20 7 11 1013.4 - 0.0
01/08:00pm 26.6 29.1 22.4 78 2.8 SW 13 17 7 9 1013.1 - 0.0
01/07:30pm 26.7 29.0 22.1 76 3.1 WSW 13 19 7 10 1012.6 - 0.0
01/07:00pm 27.0 30.2 22.4 76 3.1 WSW 9 15 5 8 1012.4 - 0.0
01/06:30pm 27.7 30.6 22.4 73 3.6 WSW 11 17 6 9 1012.1 - 0.0
01/06:00pm 28.4 30.8 22.2 69 4.2 SW 13 20 7 11 1011.8 1011.7 0.0
01/05:30pm 29.3 31.6 22.0 64 4.9 WSW 13 19 7 10 1011.7 - 0.0
01/05:00pm 29.9 32.2 22.1 63 5.3 WSW 13 19 7 10 1011.6 - 0.0
01/04:30pm 30.1 32.5 22.3 63 5.3 SW 13 19 7 10 1011.6 - 0.0
01/04:00pm 30.3 32.5 21.9 60 5.7 WSW 13 19 7 10 1011.7 - 0.0
01/03:30pm 30.5 33.1 22.7 63 5.3 WSW 13 19 7 10 1012.1 - 0.0
01/03:00pm 30.7 33.4 22.8 62 5.4 WSW 13 17 7 9 1012.5 1012.4 0.0
01/02:30pm 30.3 33.0 22.2 62 5.5 WSW 11 17 6 9 1012.9 - 0.0
01/02:00pm 30.2 32.9 22.9 65 5.0 W 13 17 7 9 1013.2 - 0.0
01/01:30pm 30.1 33.0 22.5 63 5.2 W 11 17 6 9 1013.7 - 0.0
01/01:00pm 30.1 33.3 23.0 65 4.9 W 11 17 6 9 1014.0 - 0.0
01/12:30pm 30.0 33.0 22.7 65 5.0 W 11 17 6 9 1014.4 - 0.0
01/12:00pm 29.9 33.0 22.9 66 4.8 W 11 15 6 8 1014.7 1014.6 0.0
01/11:30am 29.6 32.8 23.1 68 4.5 WSW 11 15 6 8 1015.1 - 0.0
01/11:00am 29.1 32.7 23.1 70 4.1 WSW 9 13 5 7 1015.5 - 0.0
01/10:30am 29.3 32.9 23.0 69 4.3 WSW 9 11 5 6 1015.7 - 0.0
01/10:00am 28.2 31.7 22.2 70 4.0 W 7 9 4 5 1015.7 - 0.0
01/09:30am 28.4 32.0 22.4 70 4.1 NW 7 9 4 5 1015.7 - 0.0
01/09:00am 28.1 31.8 22.6 72 3.7 ESE 7 9 4 5 1015.5 1015.4 0.0
01/08:30am 26.2 31.3 23.3 84 2.0 SE 2 6 1 3 1015.2 - 0.0
01/08:00am 23.2 27.1 22.5 96 0.5 ESE 6 7 3 4 1015.1 - 0.0
01/07:30am 20.7 23.0 19.9 95 0.5 ESE 7 9 4 5 1014.6 - 0.0
01/07:00am 20.0 22.0 19.2 95 0.5 ESE 7 9 4 5 1014.2 - 0.0
01/06:30am 20.1 22.1 19.1 94 0.6 ESE 7 9 4 5 1013.7 - 0.0
01/06:00am 20.1 22.3 19.3 95 0.5 ESE 6 7 3 4 1013.4 1013.3 0.0
01/05:30am 19.6 21.3 18.6 94 0.6 SE 7 7 4 4 1013.1 - 0.0
01/05:00am 19.8 21.7 18.6 93 0.7 SSE 6 6 3 3 1012.8 - 0.0
01/04:30am 20.1 22.2 18.9 93 0.8 S 6 7 3 4 1012.8 - 0.0
01/04:00am 20.3 22.5 19.1 93 0.8 S 6 7 3 4 1012.8 - 0.0
01/03:30am 20.4 22.6 19.1 92 0.8 S 6 7 3 4 1012.9 - 0.0
01/03:00am 21.0 23.3 19.8 93 0.8 SSW 7 11 4 6 1012.9 1012.8 0.0
01/02:30am 20.9 23.0 19.4 91 1.0 S 7 7 4 4 1013.3 - 0.0
01/02:00am 21.4 23.9 19.9 91 1.0 S 6 7 3 4 1013.6 - 0.0
01/01:30am 22.0 25.0 20.1 89 1.2 SSW 4 6 2 3 1013.7 - 0.0
01/01:00am 22.4 25.2 19.6 84 1.8 SSW 4 7 2 4 1014.0 - 0.0
01/12:30am 24.2 26.4 20.3 79 2.5 W 9 13 5 7 1014.2 - 0.0
01/12:00am 25.7 28.6 21.8 79 2.6 WSW 9 13 5 7 1014.3 1014.2 0.0
 
Date/Time
CST
Temp
°C
App
Temp
°C
Dew
Point
Rel
Hum
%
Delta-T
°C
Wind Press
QNH
hPa
Press
MSL
hPa
Rain
since 9 am
mm
Dir
 
Spd
km/h
Gust
km/h
Spd
kts
Gust
kts
31/11:30pm 26.0 28.7 22.1 79 2.6 WSW 11 15 6 8 1014.2 - 0.0
31/11:00pm 26.0 28.2 21.9 78 2.7 W 13 17 7 9 1014.1 - 0.0
31/10:30pm 26.1 28.7 22.0 78 2.7 WSW 11 17 6 9 1014.0 - 0.0
31/10:00pm 26.1 28.2 21.7 77 2.9 W 13 17 7 9 1014.1 - 0.0
31/09:30pm 26.1 28.2 21.7 77 2.9 W 13 17 7 9 1014.1 - 0.0
31/09:00pm 26.1 28.1 21.5 76 3.1 W 13 15 7 8 1014.0 1014.0 0.0
31/08:30pm 26.3 28.4 21.7 76 3.1 W 13 17 7 9 1013.7 - 0.0
31/08:00pm 26.4 28.9 21.8 76 3.1 W 11 15 6 8 1013.5 - 0.0
31/07:30pm 26.5 29.1 21.9 76 3.1 W 11 15 6 8 1013.1 - 0.0
31/07:00pm 26.8 29.3 21.8 74 3.3 WSW 11 15 6 8 1012.8 - 0.0
31/06:30pm 27.8 30.3 21.8 70 4.0 WSW 11 15 6 8 1012.8 - 0.0
31/06:00pm 28.5 31.5 22.0 68 4.4 WSW 9 15 5 8 1012.6 1012.6 0.0
31/05:30pm 29.0 31.6 22.0 66 4.7 WSW 11 17 6 9 1012.4 - 0.0
31/05:00pm 29.6 32.3 22.1 64 5.1 WSW 11 17 6 9 1012.4 - 0.0
31/04:30pm 29.8 32.1 22.0 63 5.3 WSW 13 17 7 9 1012.5 - 0.0
31/04:00pm 30.3 32.7 22.2 62 5.5 WSW 13 17 7 9 1012.7 - 0.0
31/03:30pm 30.2 32.5 22.1 62 5.5 WSW 13 20 7 11 1012.9 - 0.0
31/03:00pm 30.6 33.0 22.2 61 5.7 WSW 13 20 7 11 1013.3 1013.3 0.0
31/02:30pm 30.3 32.5 21.9 60 5.7 WSW 13 20 7 11 1013.6 - 0.0
31/02:00pm 30.9 33.1 21.9 58 6.1 WSW 13 19 7 10 1013.8 - 0.0
31/01:30pm 30.3 32.3 20.8 56 6.3 W 11 15 6 8 1014.1 - 0.0
31/01:00pm 30.2 31.8 20.7 56 6.3 W 13 17 7 9 1014.5 - 0.0
31/12:30pm 29.7 31.6 20.5 57 6.1 W 11 15 6 8 1014.8 - 0.0
31/12:00pm 29.9 31.5 19.9 55 6.6 WNW 11 15 6 8 1015.1 1015.1 0.0
31/11:30am 30.3 32.2 21.4 59 6.0 NW 13 15 7 8 1015.4 - 0.0
31/11:00am 29.3 31.3 20.7 59 5.7 WNW 11 15 6 8 1015.9 - 0.0
31/10:30am 29.3 31.8 21.8 64 5.0 NW 11 13 6 7 1016.1 - 0.0
31/10:00am 28.9 31.8 21.7 65 4.8 NNW 9 11 5 6 1016.1 - 0.0
31/09:30am 28.5 31.5 21.3 65 4.8 N 7 9 4 5 1016.0 - 0.0
31/09:00am 27.9 31.2 21.9 70 4.0 NNE 7 11 4 6 1015.9 1015.9 0.0
31/08:30am 26.6 30.6 22.7 79 2.6 NE 6 9 3 5 1015.7 - 0.0
31/08:00am 23.4 27.3 22.6 95 0.5 ESE 6 7 3 4 1015.5 - 0.0
31/07:30am 21.3 24.1 20.5 95 0.5 E 6 7 3 4 1014.9 - 0.0
31/07:00am 20.4 22.5 19.4 94 0.6 ENE 7 9 4 5 1014.6 - 0.0
31/06:30am 20.6 22.7 19.4 93 0.8 ENE 7 9 4 5 1014.1 - 0.0
31/06:00am 21.4 24.1 20.6 95 0.5 E 7 9 4 5 1013.9 1013.9 0.0
31/05:30am 20.8 23.3 19.8 94 0.6 ENE 6 7 3 4 1013.8 - 0.0
31/05:00am 20.4 22.6 19.1 92 0.8 ENE 6 6 3 3 1013.7 - 0.0
31/04:30am 20.8 23.9 19.6 93 0.8 SE 2 7 1 4 1013.8 - 0.0
31/04:00am 21.0 24.5 19.6 92 0.9 CALM 0 0 0 0 1013.9 - 0.0
31/03:30am 21.2 24.8 19.7 91 1.0 CALM 0 0 0 0 1014.0 - 0.0
31/03:00am 21.8 24.5 20.3 91 1.0 SSW 6 7 3 4 1014.1 1014.1 0.0
31/02:30am 21.9 25.8 20.4 91 1.0 CALM 0 0 0 0 1014.4 - 0.0
31/02:00am 21.9 24.9 20.0 89 1.2 S 4 7 2 4 1014.6 - 0.0
31/01:30am 22.4 24.9 20.3 88 1.4 W 7 11 4 6 1014.7 - 0.0
31/01:00am 23.2 26.7 20.3 84 1.9 S 2 6 1 3 1015.0 - 0.0
31/12:30am 24.4 27.6 21.3 83 2.0 WSW 6 9 3 5 1015.4 - 0.0
31/12:00am 25.1 28.4 21.8 82 2.2 WSW 7 11 4 6 1015.5 1015.5 0.0
 
Date/Time
CST
Temp
°C
App
Temp
°C
Dew
Point
Rel
Hum
%
Delta-T
°C
Wind Press
QNH
hPa
Press
MSL
hPa
Rain
since 9 am
mm
Dir
 
Spd
km/h
Gust
km/h
Spd
kts
Gust
kts
30/11:30pm 24.5 27.6 21.4 83 2.0 WSW 7 11 4 6 1015.4 - 0.0
30/11:00pm 24.9 27.6 21.4 81 2.3 SW 9 11 5 6 1015.1 - 0.0
30/10:30pm 24.7 27.6 21.0 80 2.4 WSW 7 13 4 7 1015.0 - 0.0
30/10:00pm 25.5 28.4 21.8 80 2.5 WSW 9 11 5 6 1014.8 - 0.0
30/09:30pm 25.8 29.0 22.3 81 2.3 W 9 13 5 7 1014.8 - 0.0
30/09:00pm 26.0 29.2 22.3 80 2.5 W 9 13 5 7 1014.6 - 0.0
30/08:30pm 26.2 29.5 22.5 80 2.5 W 9 13 5 7 1014.2 - 0.0
30/08:00pm 26.3 29.4 22.8 81 2.4 W 11 13 6 7 1013.9 - 0.0
30/07:30pm 26.4 29.4 22.7 80 2.5 W 11 15 6 8 1013.6 - 0.0
30/07:00pm 26.6 29.7 22.9 80 2.5 W 11 15 6 8 1013.4 - 0.0
30/06:30pm 27.1 30.0 22.5 76 3.1 W 11 15 6 8 1013.1 - 0.0

Other Formats:

Comma delimited format used in spreadsheet applications
http://www.bom.gov.au/fwo/IDD60801/IDD60801.94122.axf

JavaScript Object Notation format (JSON) in row-major order
http://www.bom.gov.au/fwo/IDD60801/IDD60801.94122.json